createdAt,value
2019-05-07T00:00:43.600Z,2.54
2019-05-07T00:01:42.287Z,2.54
2019-05-07T00:02:42.840Z,2.54
2019-05-07T00:03:42.174Z,2.52
2019-05-07T00:04:42.836Z,2.61
2019-05-07T00:05:42.756Z,2.61
2019-05-07T00:06:43.369Z,2.59
2019-05-07T00:07:42.536Z,2.53
2019-05-07T00:08:44.727Z,2.60
2019-05-07T00:09:43.049Z,2.42
2019-05-07T00:10:42.472Z,2.41
2019-05-07T00:11:42.582Z,2.38
2019-05-07T00:12:43.121Z,2.35
2019-05-07T00:13:44.139Z,2.21
2019-05-07T00:14:42.967Z,2.21
2019-05-07T00:15:41.949Z,2.17
2019-05-07T00:16:42.233Z,2.12
2019-05-07T00:17:42.895Z,2.10
2019-05-07T00:18:42.898Z,2.07
2019-05-07T00:19:43.230Z,2.00
2019-05-07T00:20:42.333Z,2.03
2019-05-07T00:21:42.303Z,2.05
2019-05-07T00:22:41.963Z,2.00
2019-05-07T00:23:43.093Z,2.05
2019-05-07T00:24:42.679Z,2.00
2019-05-07T00:25:42.191Z,1.98
2019-05-07T00:26:43.083Z,2.03
2019-05-07T00:27:42.725Z,2.02
2019-05-07T00:28:42.993Z,2.00
2019-05-07T00:29:42.883Z,2.02
2019-05-07T00:30:42.513Z,2.02
2019-05-07T00:31:41.954Z,2.00
2019-05-07T00:32:42.414Z,2.05
2019-05-07T00:33:43.028Z,2.05
2019-05-07T00:34:42.431Z,2.09
2019-05-07T00:35:42.798Z,2.05
2019-05-07T00:36:42.073Z,2.00
2019-05-07T00:37:43.019Z,2.05
2019-05-07T00:38:42.694Z,2.10
2019-05-07T00:39:42.415Z,2.02
2019-05-07T00:40:42.575Z,2.00
2019-05-07T00:41:42.676Z,1.98
2019-05-07T00:42:42.015Z,1.95
2019-05-07T00:43:42.768Z,1.91
2019-05-07T00:44:42.228Z,1.87
2019-05-07T00:45:42.118Z,1.84
2019-05-07T00:46:42.614Z,1.88
2019-05-07T00:47:42.557Z,1.77
2019-05-07T00:48:42.156Z,1.86
2019-05-07T00:49:42.497Z,1.87
2019-05-07T00:50:42.042Z,1.80
2019-05-07T00:51:42.427Z,1.83
2019-05-07T00:52:42.841Z,1.77
2019-05-07T00:53:42.317Z,1.87
2019-05-07T00:54:42.243Z,1.80
2019-05-07T00:55:42.279Z,1.77
2019-05-07T00:56:42.708Z,1.88
2019-05-07T00:57:42.740Z,1.83
2019-05-07T00:58:42.730Z,1.83
2019-05-07T00:59:40.360Z,1.93
2019-05-07T01:00:42.030Z,1.90
2019-05-07T01:01:40.332Z,1.91
2019-05-07T01:02:40.309Z,1.95
2019-05-07T01:03:42.302Z,2.03
2019-05-07T01:04:42.226Z,1.91
2019-05-07T01:05:40.256Z,1.84
2019-05-07T01:06:42.311Z,1.91
2019-05-07T01:07:41.905Z,1.90
2019-05-07T01:08:40.198Z,1.91
2019-05-07T01:09:40.179Z,1.80
2019-05-07T01:10:41.938Z,1.87
2019-05-07T01:11:40.146Z,1.86
2019-05-07T01:12:42.198Z,1.88
2019-05-07T01:13:40.106Z,1.77
2019-05-07T01:14:41.994Z,1.83
2019-05-07T01:15:40.068Z,1.87
2019-05-07T01:16:42.053Z,1.77
2019-05-07T01:17:42.401Z,1.79
2019-05-07T01:18:42.098Z,1.81
2019-05-07T01:19:42.228Z,1.73
2019-05-07T01:20:42.122Z,1.70
2019-05-07T01:21:39.964Z,1.69
2019-05-07T01:22:42.295Z,1.70
2019-05-07T01:23:39.930Z,1.54
2019-05-07T01:24:39.908Z,1.68
2019-05-07T01:25:39.884Z,1.59
2019-05-07T01:26:39.862Z,1.52
2019-05-07T01:27:39.848Z,1.51
2019-05-07T01:28:41.668Z,1.60
2019-05-07T01:29:39.815Z,1.51
2019-05-07T01:30:39.795Z,1.54
2019-05-07T01:31:39.775Z,1.44
2019-05-07T01:32:39.759Z,1.47
2019-05-07T01:33:39.756Z,1.47
2019-05-07T01:34:39.723Z,1.44
2019-05-07T01:35:39.704Z,1.42
2019-05-07T01:36:39.686Z,1.47
2019-05-07T01:37:39.663Z,1.52
2019-05-07T01:38:39.647Z,1.52
2019-05-07T01:39:42.049Z,1.52
2019-05-07T01:40:39.607Z,1.62
2019-05-07T01:41:41.805Z,1.50
2019-05-07T01:42:39.575Z,1.51
2019-05-07T01:43:39.555Z,1.58
2019-05-07T01:44:41.868Z,1.44
2019-05-07T01:45:46.383Z,1.45
2019-05-07T01:46:39.496Z,1.41
2019-05-07T01:47:39.482Z,1.48
2019-05-07T01:48:39.460Z,1.50
2019-05-07T01:49:39.444Z,1.48
2019-05-07T01:50:39.428Z,1.52
2019-05-07T01:51:39.412Z,1.59
2019-05-07T01:52:39.388Z,1.54
2019-05-07T01:53:39.365Z,1.54
2019-05-07T01:54:39.351Z,1.55
2019-05-07T01:55:39.332Z,1.54
2019-05-07T01:56:39.310Z,1.54
2019-05-07T01:57:39.293Z,1.47
2019-05-07T01:58:39.273Z,1.45
2019-05-07T01:59:39.259Z,1.42
2019-05-07T02:00:39.235Z,1.47
2019-05-07T02:01:39.220Z,1.44
2019-05-07T02:02:39.200Z,1.45
2019-05-07T02:03:39.188Z,1.44
2019-05-07T02:04:39.165Z,1.44
2019-05-07T02:05:39.148Z,1.51
2019-05-07T02:06:39.126Z,1.48
2019-05-07T02:07:39.102Z,1.42
2019-05-07T02:08:39.086Z,1.42
2019-05-07T02:09:39.082Z,1.45
2019-05-07T02:10:39.055Z,1.33
2019-05-07T02:11:39.033Z,1.37
2019-05-07T02:12:39.021Z,1.32
2019-05-07T02:13:39.001Z,1.24
2019-05-07T02:14:38.981Z,1.22
2019-05-07T02:15:38.970Z,1.27
2019-05-07T02:16:38.942Z,1.27
2019-05-07T02:17:38.924Z,1.23
2019-05-07T02:18:38.908Z,1.22
2019-05-07T02:19:38.886Z,1.24
2019-05-07T02:20:38.866Z,1.26
2019-05-07T02:21:38.848Z,1.12
2019-05-07T02:22:38.830Z,1.27
2019-05-07T02:23:38.816Z,1.23
2019-05-07T02:24:38.800Z,1.14
2019-05-07T02:25:38.793Z,1.12
2019-05-07T02:26:38.753Z,1.23
2019-05-07T02:27:38.737Z,1.15
2019-05-07T02:28:38.718Z,1.14
2019-05-07T02:29:38.701Z,1.11
2019-05-07T02:30:38.674Z,1.16
2019-05-07T02:31:38.660Z,1.11
2019-05-07T02:32:38.647Z,1.12
2019-05-07T02:33:38.627Z,1.14
2019-05-07T02:34:38.609Z,1.12
2019-05-07T02:35:38.590Z,1.09
2019-05-07T02:36:38.565Z,1.15
2019-05-07T02:37:48.399Z,1.12
2019-05-07T02:38:38.530Z,1.18
2019-05-07T02:39:38.512Z,1.12
2019-05-07T02:40:38.494Z,1.14
2019-05-07T02:41:38.477Z,1.09
2019-05-07T02:42:38.458Z,1.11
2019-05-07T02:43:38.443Z,1.16
2019-05-07T02:44:38.414Z,1.16
2019-05-07T02:45:38.404Z,1.11
2019-05-07T02:46:38.386Z,1.14
2019-05-07T02:47:38.377Z,1.23
2019-05-07T02:48:38.340Z,1.11
2019-05-07T02:49:38.323Z,1.11
2019-05-07T02:50:38.303Z,1.12
2019-05-07T02:51:38.294Z,1.15
2019-05-07T02:52:38.272Z,1.18
2019-05-07T02:53:38.248Z,1.22
2019-05-07T02:54:38.235Z,1.11
2019-05-07T02:55:38.211Z,1.20
2019-05-07T02:56:38.198Z,1.26
2019-05-07T02:57:38.178Z,1.22
2019-05-07T02:58:38.149Z,1.16
2019-05-07T02:59:38.139Z,1.22
2019-05-07T03:00:38.113Z,1.27
2019-05-07T03:01:38.115Z,1.41
2019-05-07T03:02:38.076Z,1.42
2019-05-07T03:03:38.061Z,1.37
2019-05-07T03:04:38.048Z,1.33
2019-05-07T03:05:38.024Z,1.34
2019-05-07T03:06:38.003Z,1.36
2019-05-07T03:07:37.988Z,1.24
2019-05-07T03:08:37.966Z,1.29
2019-05-07T03:09:37.952Z,1.24
2019-05-07T03:10:37.929Z,1.18
2019-05-07T03:11:37.910Z,1.12
2019-05-07T03:12:37.897Z,1.15
2019-05-07T03:13:37.881Z,1.16
2019-05-07T03:14:37.865Z,1.09
2019-05-07T03:15:37.849Z,1.11
2019-05-07T03:16:43.558Z,0.98
2019-05-07T03:17:37.798Z,1.05
2019-05-07T03:18:37.783Z,1.20
2019-05-07T03:19:37.764Z,1.05
2019-05-07T03:20:37.742Z,0.98
2019-05-07T03:21:37.730Z,1.08
2019-05-07T03:22:37.710Z,1.08
2019-05-07T03:23:37.690Z,1.20
2019-05-07T03:24:37.672Z,0.98
2019-05-07T03:25:37.655Z,1.11
2019-05-07T03:26:37.631Z,1.04
2019-05-07T03:27:37.611Z,1.06
2019-05-07T03:28:37.601Z,1.06
2019-05-07T03:29:37.575Z,1.05
2019-05-07T03:30:37.559Z,1.08
2019-05-07T03:31:37.539Z,1.04
2019-05-07T03:32:39.855Z,1.14
2019-05-07T03:33:37.503Z,0.98
2019-05-07T03:34:37.640Z,1.15
2019-05-07T03:35:38.243Z,1.15
2019-05-07T03:36:37.448Z,1.11
2019-05-07T03:37:37.422Z,1.11
2019-05-07T03:38:37.405Z,1.14
2019-05-07T03:39:37.393Z,1.14
2019-05-07T03:40:37.390Z,1.04
2019-05-07T03:41:37.353Z,1.05
2019-05-07T03:42:37.334Z,1.11
2019-05-07T03:43:37.311Z,1.06
2019-05-07T03:44:37.295Z,1.05
2019-05-07T03:45:37.275Z,0.97
2019-05-07T03:46:53.067Z,0.94
2019-05-07T03:47:37.235Z,0.98
2019-05-07T03:48:37.216Z,0.94
2019-05-07T03:49:37.226Z,0.97
2019-05-07T03:50:37.185Z,0.96
2019-05-07T03:51:37.160Z,0.88
2019-05-07T03:52:37.142Z,0.93
2019-05-07T03:53:37.122Z,0.90
2019-05-07T03:54:37.107Z,0.87
2019-05-07T03:55:37.084Z,0.87
2019-05-07T03:56:37.068Z,0.91
2019-05-07T03:57:37.053Z,0.87
2019-05-07T03:58:37.030Z,0.91
2019-05-07T03:59:37.020Z,0.91
2019-05-07T04:00:36.996Z,0.86
2019-05-07T04:01:36.973Z,0.94
2019-05-07T04:02:36.949Z,0.94
2019-05-07T04:03:36.943Z,1.02
2019-05-07T04:04:36.918Z,1.04
2019-05-07T04:05:36.899Z,1.00
2019-05-07T04:06:36.878Z,0.94
2019-05-07T04:07:36.861Z,0.98
2019-05-07T04:08:36.840Z,1.04
2019-05-07T04:09:36.828Z,0.96
2019-05-07T04:10:36.800Z,0.97
2019-05-07T04:11:36.782Z,0.94
2019-05-07T04:12:36.770Z,0.94
2019-05-07T04:13:36.747Z,0.83
2019-05-07T04:14:36.748Z,0.93
2019-05-07T04:15:36.723Z,0.88
2019-05-07T04:16:36.719Z,0.88
2019-05-07T04:17:36.672Z,0.75
2019-05-07T04:18:36.652Z,0.80
2019-05-07T04:19:36.633Z,0.87
2019-05-07T04:20:36.616Z,0.84
2019-05-07T04:21:36.595Z,0.91
2019-05-07T04:22:36.575Z,0.86
2019-05-07T04:23:36.557Z,0.83
2019-05-07T04:24:36.533Z,0.97
2019-05-07T04:25:36.522Z,0.97
2019-05-07T04:26:36.500Z,0.94
2019-05-07T04:27:36.519Z,0.94
2019-05-07T04:28:36.462Z,1.02
2019-05-07T04:29:36.455Z,1.02
2019-05-07T04:30:36.421Z,1.00
2019-05-07T04:31:36.413Z,1.12
2019-05-07T04:32:36.396Z,1.08
2019-05-07T04:33:36.369Z,1.04
2019-05-07T04:34:36.361Z,1.12
2019-05-07T04:35:36.325Z,1.06
2019-05-07T04:36:36.317Z,1.00
2019-05-07T04:37:36.299Z,1.11
2019-05-07T04:38:36.270Z,1.05
2019-05-07T04:39:36.270Z,1.16
2019-05-07T04:40:36.233Z,1.16
2019-05-07T04:41:36.212Z,1.05
2019-05-07T04:42:36.200Z,1.02
2019-05-07T04:43:36.181Z,1.08
2019-05-07T04:44:36.158Z,1.06
2019-05-07T04:45:36.140Z,1.09
2019-05-07T04:46:36.125Z,1.02
2019-05-07T04:47:43.138Z,1.04
2019-05-07T04:48:36.095Z,1.06
2019-05-07T04:49:36.066Z,1.00
2019-05-07T04:50:43.070Z,1.08
2019-05-07T04:51:36.028Z,0.96
2019-05-07T04:52:36.009Z,0.97
2019-05-07T04:53:35.994Z,1.00
2019-05-07T04:54:35.972Z,0.96
2019-05-07T04:55:35.955Z,0.97
2019-05-07T04:56:35.938Z,0.94
2019-05-07T04:57:35.916Z,1.05
2019-05-07T04:58:35.901Z,1.00
2019-05-07T04:59:35.884Z,1.08
2019-05-07T05:00:35.855Z,1.04
2019-05-07T05:01:35.840Z,1.08
2019-05-07T05:02:35.819Z,1.06
2019-05-07T05:03:39.092Z,1.04
2019-05-07T05:04:35.783Z,1.11
2019-05-07T05:05:35.765Z,1.05
2019-05-07T05:06:35.743Z,1.08
2019-05-07T05:07:35.769Z,1.08
2019-05-07T05:08:35.707Z,1.00
2019-05-07T05:09:35.692Z,0.96
2019-05-07T05:10:35.671Z,0.94
2019-05-07T05:11:35.648Z,1.05
2019-05-07T05:12:35.634Z,0.98
2019-05-07T05:13:35.624Z,1.05
2019-05-07T05:14:35.591Z,1.09
2019-05-07T05:15:35.576Z,1.08
2019-05-07T05:16:35.556Z,1.00
2019-05-07T05:17:47.027Z,1.09
2019-05-07T05:18:35.519Z,1.11
2019-05-07T05:19:35.493Z,1.05
2019-05-07T05:20:35.479Z,1.16
2019-05-07T05:21:35.456Z,1.18
2019-05-07T05:22:35.445Z,1.11
2019-05-07T05:23:35.426Z,1.04
2019-05-07T05:24:35.404Z,1.15
2019-05-07T05:25:35.388Z,1.08
2019-05-07T05:26:35.373Z,0.98
2019-05-07T05:27:35.344Z,1.14
2019-05-07T05:28:35.336Z,1.04
2019-05-07T05:29:35.321Z,0.98
2019-05-07T05:30:35.293Z,1.09
2019-05-07T05:31:35.273Z,1.00
2019-05-07T05:32:35.253Z,1.08
2019-05-07T05:33:35.243Z,1.12
2019-05-07T05:34:35.213Z,1.20
2019-05-07T05:35:35.201Z,1.11
2019-05-07T05:36:35.181Z,1.27
2019-05-07T05:37:35.160Z,1.29
2019-05-07T05:38:35.148Z,1.23
2019-05-07T05:39:35.122Z,1.34
2019-05-07T05:40:35.106Z,1.36
2019-05-07T05:41:37.817Z,1.30
2019-05-07T05:42:35.068Z,1.30
2019-05-07T05:43:35.057Z,1.29
2019-05-07T05:44:35.036Z,1.29
2019-05-07T05:45:35.015Z,1.29
2019-05-07T05:46:34.993Z,1.14
2019-05-07T05:47:34.973Z,1.15
2019-05-07T05:48:34.955Z,1.15
2019-05-07T05:49:34.939Z,1.23
2019-05-07T05:50:34.918Z,1.23
2019-05-07T05:51:34.900Z,1.20
2019-05-07T05:52:34.884Z,1.26
2019-05-07T05:53:34.862Z,1.24
2019-05-07T05:54:34.875Z,1.40
2019-05-07T05:55:34.825Z,1.41
2019-05-07T05:56:34.805Z,1.42
2019-05-07T05:57:34.787Z,1.40
2019-05-07T05:58:34.769Z,1.36
2019-05-07T05:59:48.223Z,1.47
2019-05-07T06:00:34.731Z,1.45
2019-05-07T06:01:34.722Z,1.50
2019-05-07T06:02:34.692Z,1.52
2019-05-07T06:03:34.681Z,1.54
2019-05-07T06:04:34.660Z,1.51
2019-05-07T06:05:34.702Z,1.52
2019-05-07T06:06:34.628Z,1.65
2019-05-07T06:07:34.604Z,1.69
2019-05-07T06:08:34.612Z,1.59
2019-05-07T06:09:34.561Z,1.70
2019-05-07T06:10:34.545Z,1.69
2019-05-07T06:11:34.527Z,1.76
2019-05-07T06:12:34.507Z,1.77
2019-05-07T06:13:34.495Z,1.87
2019-05-07T06:14:34.475Z,1.99
2019-05-07T06:15:34.457Z,2.14
2019-05-07T06:16:36.593Z,2.17
2019-05-07T06:17:34.416Z,2.30
2019-05-07T06:18:34.404Z,2.46
2019-05-07T06:19:34.384Z,2.54
2019-05-07T06:20:34.367Z,2.69
2019-05-07T06:21:34.350Z,2.74
2019-05-07T06:22:34.326Z,2.81
2019-05-07T06:23:34.326Z,2.95
2019-05-07T06:24:34.288Z,3.03
2019-05-07T06:25:34.273Z,3.06
2019-05-07T06:26:34.249Z,3.21
2019-05-07T06:27:34.233Z,3.18
2019-05-07T06:28:34.216Z,3.31
2019-05-07T06:29:34.204Z,3.32
2019-05-07T06:30:34.183Z,3.52
2019-05-07T06:31:34.155Z,3.54
2019-05-07T06:32:34.145Z,3.62
2019-05-07T06:33:34.127Z,3.73
2019-05-07T06:34:34.338Z,3.79
2019-05-07T06:35:34.091Z,3.79
2019-05-07T06:36:34.071Z,3.79
2019-05-07T06:37:34.054Z,3.83
2019-05-07T06:38:34.033Z,3.78
2019-05-07T06:39:34.019Z,3.84
2019-05-07T06:40:34.009Z,3.84
2019-05-07T06:41:33.985Z,3.84
2019-05-07T06:42:33.966Z,4.02
2019-05-07T06:43:33.941Z,4.09
2019-05-07T06:44:33.926Z,4.04
2019-05-07T06:45:35.454Z,4.08
2019-05-07T06:46:33.892Z,4.15
2019-05-07T06:47:33.888Z,4.36
2019-05-07T06:48:41.997Z,4.32
2019-05-07T06:49:33.850Z,4.41
2019-05-07T06:50:33.827Z,4.40
2019-05-07T06:51:33.807Z,4.34
2019-05-07T06:52:33.801Z,4.42
2019-05-07T06:53:33.872Z,4.37
2019-05-07T06:54:33.754Z,4.58
2019-05-07T06:55:33.743Z,4.52
2019-05-07T06:56:33.720Z,4.75
2019-05-07T06:57:33.713Z,4.70
2019-05-07T06:58:33.688Z,4.89
2019-05-07T06:59:34.725Z,4.86
2019-05-07T07:00:33.652Z,4.91
2019-05-07T07:01:33.639Z,4.99
2019-05-07T07:02:33.625Z,5.13
2019-05-07T07:03:33.606Z,5.13
2019-05-07T07:04:33.590Z,5.15
2019-05-07T07:05:33.568Z,5.21
2019-05-07T07:06:33.545Z,5.31
2019-05-07T07:07:37.014Z,5.25
2019-05-07T07:08:33.519Z,5.31
2019-05-07T07:09:33.513Z,5.38
2019-05-07T07:10:33.477Z,5.43
2019-05-07T07:11:33.480Z,5.40
2019-05-07T07:12:33.452Z,5.56
2019-05-07T07:13:33.436Z,5.53
2019-05-07T07:14:33.416Z,5.60
2019-05-07T07:15:33.408Z,5.63
2019-05-07T07:16:33.383Z,5.64
2019-05-07T07:17:33.367Z,5.76
2019-05-07T07:18:33.354Z,5.74
2019-05-07T07:19:36.136Z,5.79
2019-05-07T07:20:33.318Z,5.86
2019-05-07T07:21:33.305Z,5.86
2019-05-07T07:22:33.289Z,5.90
2019-05-07T07:23:33.272Z,5.90
2019-05-07T07:24:33.257Z,5.93
2019-05-07T07:25:33.237Z,5.90
2019-05-07T07:26:33.224Z,5.89
2019-05-07T07:27:33.203Z,5.97
2019-05-07T07:28:33.184Z,5.96
2019-05-07T07:29:33.169Z,6.06
2019-05-07T07:30:33.153Z,6.11
2019-05-07T07:31:33.138Z,6.17
2019-05-07T07:32:33.124Z,6.21
2019-05-07T07:33:33.104Z,6.31
2019-05-07T07:34:33.425Z,6.40
2019-05-07T07:35:33.080Z,6.44
2019-05-07T07:36:33.063Z,6.46
2019-05-07T07:37:33.042Z,6.51
2019-05-07T07:38:33.146Z,6.64
2019-05-07T07:39:33.010Z,6.66
2019-05-07T07:40:32.996Z,6.70
2019-05-07T07:41:32.975Z,6.73
2019-05-07T07:42:32.961Z,6.73
2019-05-07T07:43:32.945Z,6.91
2019-05-07T07:44:33.114Z,6.92
2019-05-07T07:45:32.912Z,6.98
2019-05-07T07:46:33.164Z,6.95
2019-05-07T07:47:33.035Z,6.88
2019-05-07T07:48:32.876Z,6.80
2019-05-07T07:49:33.186Z,6.85
2019-05-07T07:50:33.194Z,6.84
2019-05-07T07:51:41.544Z,6.88
2019-05-07T07:52:32.803Z,6.89
2019-05-07T07:53:35.408Z,6.97
2019-05-07T07:54:32.779Z,6.97
2019-05-07T07:55:33.082Z,6.94
2019-05-07T07:56:47.871Z,6.95
2019-05-07T07:57:32.723Z,7.02
2019-05-07T07:58:34.282Z,7.02
2019-05-07T07:59:32.995Z,7.10
2019-05-07T08:00:33.006Z,6.95
2019-05-07T08:01:33.050Z,7.03
2019-05-07T08:02:32.645Z,7.16
2019-05-07T08:03:33.029Z,7.17
2019-05-07T08:04:32.615Z,7.09
2019-05-07T08:05:32.707Z,7.20
2019-05-07T08:06:32.737Z,7.17
2019-05-07T08:07:33.154Z,7.34
2019-05-07T08:08:32.553Z,7.21
2019-05-07T08:09:32.544Z,7.12
2019-05-07T08:10:32.694Z,7.07
2019-05-07T08:11:32.506Z,7.09
2019-05-07T08:12:32.631Z,7.17
2019-05-07T08:13:32.627Z,7.17
2019-05-07T08:14:32.623Z,7.17
2019-05-07T08:15:33.147Z,7.21
2019-05-07T08:16:32.858Z,7.21
2019-05-07T08:17:32.718Z,7.42
2019-05-07T08:18:32.884Z,7.34
2019-05-07T08:19:32.915Z,7.49
2019-05-07T08:20:32.769Z,7.57
2019-05-07T08:21:33.183Z,7.57
2019-05-07T08:22:32.950Z,7.68
2019-05-07T08:23:32.317Z,7.72
2019-05-07T08:24:32.417Z,7.77
2019-05-07T08:25:32.292Z,7.79
2019-05-07T08:26:32.407Z,7.83
2019-05-07T08:27:32.574Z,8.00
2019-05-07T08:28:32.252Z,7.90
2019-05-07T08:29:32.767Z,8.02
2019-05-07T08:30:32.701Z,8.02
2019-05-07T08:31:32.204Z,8.15
2019-05-07T08:32:32.705Z,8.16
2019-05-07T08:33:32.338Z,8.16
2019-05-07T08:34:32.580Z,8.28
2019-05-07T08:35:32.730Z,8.30
2019-05-07T08:36:33.103Z,8.41
2019-05-07T08:37:32.241Z,8.53
2019-05-07T08:38:32.729Z,8.50
2019-05-07T08:39:32.687Z,8.47
2019-05-07T08:40:32.601Z,8.56
2019-05-07T08:41:32.076Z,8.66
2019-05-07T08:42:32.151Z,8.68
2019-05-07T08:43:32.279Z,8.70
2019-05-07T08:44:32.572Z,8.81
2019-05-07T08:45:32.614Z,8.77
2019-05-07T08:46:32.850Z,8.87
2019-05-07T08:47:32.030Z,8.92
2019-05-07T08:48:32.098Z,8.81
2019-05-07T08:49:39.305Z,8.76
2019-05-07T08:50:32.688Z,8.66
2019-05-07T08:51:32.692Z,8.62
2019-05-07T08:52:32.705Z,8.58
2019-05-07T08:53:32.797Z,8.58
2019-05-07T08:54:32.149Z,8.53
2019-05-07T08:55:32.318Z,8.62
2019-05-07T08:56:31.952Z,8.63
2019-05-07T08:57:32.005Z,8.76
2019-05-07T08:58:31.841Z,8.83
2019-05-07T08:59:32.049Z,8.76
2019-05-07T09:00:32.614Z,8.94
2019-05-07T09:01:32.525Z,8.92
2019-05-07T09:02:32.598Z,8.92
2019-05-07T09:03:32.400Z,9.05
2019-05-07T09:04:32.735Z,9.08
2019-05-07T09:05:32.353Z,8.98
2019-05-07T09:06:32.270Z,9.01
2019-05-07T09:07:32.171Z,8.91
2019-05-07T09:08:32.128Z,8.87
2019-05-07T09:09:32.418Z,8.71
2019-05-07T09:10:32.487Z,8.62
2019-05-07T09:11:32.125Z,8.50
2019-05-07T09:12:31.931Z,8.53
2019-05-07T09:13:33.299Z,8.58
2019-05-07T09:14:32.091Z,8.48
2019-05-07T09:15:32.091Z,8.58
2019-05-07T09:16:31.980Z,8.58
2019-05-07T09:17:31.936Z,8.56
2019-05-07T09:18:32.217Z,8.62
2019-05-07T09:19:32.188Z,8.76
2019-05-07T09:20:32.121Z,8.71
2019-05-07T09:21:32.168Z,8.80
2019-05-07T09:22:32.353Z,8.79
2019-05-07T09:23:31.993Z,8.80
2019-05-07T09:24:33.369Z,8.84
2019-05-07T09:25:32.499Z,8.87
2019-05-07T09:26:32.339Z,8.84
2019-05-07T09:27:32.738Z,8.92
2019-05-07T09:28:32.656Z,8.86
2019-05-07T09:29:32.370Z,8.94
2019-05-07T09:30:32.634Z,8.95
2019-05-07T09:31:32.206Z,8.94
2019-05-07T09:32:32.655Z,9.11
2019-05-07T09:33:32.029Z,9.26
2019-05-07T09:34:32.716Z,9.33
2019-05-07T09:35:32.055Z,9.50
2019-05-07T09:36:32.267Z,9.58
2019-05-07T09:37:32.617Z,9.69
2019-05-07T09:38:32.746Z,9.74
2019-05-07T09:39:32.409Z,9.83
2019-05-07T09:40:32.072Z,9.86
2019-05-07T09:41:32.770Z,9.87
2019-05-07T09:42:33.229Z,9.99
2019-05-07T09:43:32.439Z,10.15
2019-05-07T09:44:32.497Z,10.04
2019-05-07T09:45:32.866Z,10.15
2019-05-07T09:46:32.597Z,10.09
2019-05-07T09:47:32.520Z,10.08
2019-05-07T09:48:31.068Z,10.11
2019-05-07T09:49:32.641Z,10.12
2019-05-07T09:50:32.479Z,10.22
2019-05-07T09:51:32.154Z,10.20
2019-05-07T09:52:32.176Z,10.22
2019-05-07T09:53:32.151Z,10.29
2019-05-07T09:54:32.306Z,10.40
2019-05-07T09:55:32.631Z,10.20
2019-05-07T09:56:31.970Z,10.23
2019-05-07T09:57:32.482Z,10.32
2019-05-07T09:58:36.721Z,10.17
2019-05-07T09:59:32.534Z,10.02
2019-05-07T10:00:32.042Z,10.17
2019-05-07T10:01:31.902Z,10.14
2019-05-07T10:02:31.983Z,10.11
2019-05-07T10:03:32.383Z,10.15
2019-05-07T10:04:32.703Z,10.17
2019-05-07T10:05:32.178Z,10.09
2019-05-07T10:06:32.061Z,10.20
2019-05-07T10:07:32.447Z,10.32
2019-05-07T10:08:31.832Z,10.29
2019-05-07T10:09:32.620Z,10.59
2019-05-07T10:10:32.751Z,10.61
2019-05-07T10:11:32.750Z,10.45
2019-05-07T10:12:32.820Z,10.52
2019-05-07T10:13:32.859Z,10.67
2019-05-07T10:14:32.939Z,10.68
2019-05-07T10:15:32.934Z,10.82
2019-05-07T10:16:30.679Z,10.88
2019-05-07T10:17:32.621Z,10.70
2019-05-07T10:18:32.078Z,10.63
2019-05-07T10:19:32.524Z,10.82
2019-05-07T10:20:32.573Z,10.86
2019-05-07T10:21:30.628Z,10.79
2019-05-07T10:22:32.156Z,10.91
2019-05-07T10:23:30.583Z,10.89
2019-05-07T10:24:30.570Z,10.88
2019-05-07T10:25:32.703Z,10.88
2019-05-07T10:26:32.153Z,10.96
2019-05-07T10:27:32.390Z,11.00
2019-05-07T10:28:32.081Z,11.09
2019-05-07T10:29:32.283Z,11.06
2019-05-07T10:30:32.138Z,11.15
2019-05-07T10:31:32.004Z,11.14
2019-05-07T10:32:32.253Z,11.17
2019-05-07T10:33:31.932Z,11.25
2019-05-07T10:34:30.428Z,11.39
2019-05-07T10:35:31.677Z,11.36
2019-05-07T10:36:32.010Z,11.54
2019-05-07T10:37:31.870Z,11.62
2019-05-07T10:38:30.379Z,11.60
2019-05-07T10:39:32.418Z,11.61
2019-05-07T10:40:32.562Z,11.62
2019-05-07T10:41:31.844Z,11.57
2019-05-07T10:42:32.404Z,11.62
2019-05-07T10:43:32.549Z,11.58
2019-05-07T10:44:32.144Z,11.64
2019-05-07T10:45:32.154Z,11.65
2019-05-07T10:46:31.971Z,11.60
2019-05-07T10:47:30.262Z,11.70
2019-05-07T10:48:32.005Z,11.73
2019-05-07T10:49:31.750Z,11.79
2019-05-07T10:50:38.927Z,11.90
2019-05-07T10:51:32.048Z,11.95
2019-05-07T10:52:31.849Z,11.83
2019-05-07T10:53:31.985Z,11.82
2019-05-07T10:54:30.167Z,11.85
2019-05-07T10:55:30.158Z,11.91
2019-05-07T10:56:30.144Z,11.94
2019-05-07T10:57:30.127Z,11.90
2019-05-07T10:58:32.048Z,11.94
2019-05-07T10:59:30.104Z,12.04
2019-05-07T11:00:30.100Z,12.02
2019-05-07T11:01:30.078Z,12.01
2019-05-07T11:02:30.062Z,11.98
2019-05-07T11:03:32.200Z,11.90
2019-05-07T11:04:40.281Z,11.82
2019-05-07T11:05:30.029Z,11.85
2019-05-07T11:06:30.015Z,11.91
2019-05-07T11:07:29.997Z,11.94
2019-05-07T11:08:29.987Z,11.80
2019-05-07T11:09:29.972Z,11.79
2019-05-07T11:10:29.957Z,11.80
2019-05-07T11:11:31.775Z,11.83
2019-05-07T11:12:31.811Z,11.62
2019-05-07T11:13:29.923Z,11.64
2019-05-07T11:14:32.024Z,11.67
2019-05-07T11:15:29.893Z,11.69
2019-05-07T11:16:29.879Z,11.60
2019-05-07T11:17:29.867Z,11.64
2019-05-07T11:18:29.866Z,11.75
2019-05-07T11:19:29.843Z,11.80
2019-05-07T11:20:31.902Z,11.76
2019-05-07T11:21:29.820Z,11.79
2019-05-07T11:22:29.802Z,11.62
2019-05-07T11:23:29.791Z,11.60
2019-05-07T11:24:29.774Z,11.65
2019-05-07T11:25:29.768Z,11.76
2019-05-07T11:26:29.758Z,11.83
2019-05-07T11:27:29.735Z,11.79
2019-05-07T11:28:31.682Z,11.91
2019-05-07T11:29:29.713Z,11.99
2019-05-07T11:30:31.989Z,11.99
2019-05-07T11:31:29.691Z,12.01
2019-05-07T11:32:29.670Z,12.14
2019-05-07T11:33:29.664Z,12.24
2019-05-07T11:34:29.655Z,12.27
2019-05-07T11:35:31.720Z,12.56
2019-05-07T11:36:29.623Z,12.45
2019-05-07T11:37:29.630Z,12.49
2019-05-07T11:38:29.594Z,12.68
2019-05-07T11:39:29.591Z,12.64
2019-05-07T11:40:32.084Z,12.78
2019-05-07T11:41:29.558Z,12.74
2019-05-07T11:42:29.543Z,12.75
2019-05-07T11:43:29.536Z,12.54
2019-05-07T11:44:29.517Z,12.68
2019-05-07T11:45:29.499Z,12.77
2019-05-07T11:46:29.491Z,12.77
2019-05-07T11:47:31.715Z,12.75
2019-05-07T11:48:29.466Z,12.77
2019-05-07T11:49:29.450Z,12.86
2019-05-07T11:50:29.432Z,12.83
2019-05-07T11:51:29.442Z,12.95
2019-05-07T11:52:29.412Z,13.08
2019-05-07T11:53:29.403Z,13.17
2019-05-07T11:54:31.397Z,13.42
2019-05-07T11:55:29.379Z,13.60
2019-05-07T11:56:29.369Z,13.69
2019-05-07T11:57:29.346Z,13.59
2019-05-07T11:58:29.336Z,13.77
2019-05-07T11:59:29.324Z,13.88
2019-05-07T12:00:29.315Z,13.92
2019-05-07T12:01:41.636Z,14.12
2019-05-07T12:02:29.291Z,14.15
2019-05-07T12:03:29.279Z,14.22
2019-05-07T12:04:29.266Z,14.15
2019-05-07T12:05:29.251Z,14.25
2019-05-07T12:06:29.239Z,14.24
2019-05-07T12:07:29.229Z,14.27
2019-05-07T12:08:41.022Z,14.22
2019-05-07T12:09:29.206Z,14.25
2019-05-07T12:10:29.190Z,14.21
2019-05-07T12:11:29.180Z,14.24
2019-05-07T12:12:29.166Z,14.20
2019-05-07T12:13:29.154Z,14.37
2019-05-07T12:14:32.514Z,14.35
2019-05-07T12:15:29.135Z,14.29
2019-05-07T12:16:29.121Z,14.29
2019-05-07T12:17:29.111Z,14.45
2019-05-07T12:18:29.094Z,14.54
2019-05-07T12:19:29.091Z,14.51
2019-05-07T12:20:29.071Z,14.62
2019-05-07T12:21:29.061Z,14.69
2019-05-07T12:22:29.065Z,14.69
2019-05-07T12:23:29.038Z,14.80
2019-05-07T12:24:29.025Z,14.68
2019-05-07T12:25:29.016Z,14.57
2019-05-07T12:26:29.002Z,14.43
2019-05-07T12:27:28.997Z,14.50
2019-05-07T12:28:28.982Z,14.40
2019-05-07T12:29:28.971Z,14.39
2019-05-07T12:30:28.956Z,14.47
2019-05-07T12:31:28.946Z,14.57
2019-05-07T12:32:28.936Z,14.58
2019-05-07T12:33:28.925Z,14.64
2019-05-07T12:34:28.916Z,14.62
2019-05-07T12:35:28.900Z,14.75
2019-05-07T12:36:28.887Z,14.78
2019-05-07T12:37:28.882Z,14.78
2019-05-07T12:38:28.865Z,14.83
2019-05-07T12:39:28.853Z,14.83
2019-05-07T12:40:28.849Z,14.81
2019-05-07T12:41:28.835Z,14.84
2019-05-07T12:42:28.827Z,14.88
2019-05-07T12:43:28.806Z,14.92
2019-05-07T12:44:28.800Z,14.91
2019-05-07T12:45:28.780Z,14.99
2019-05-07T12:46:28.774Z,14.94
2019-05-07T12:47:28.760Z,14.78
2019-05-07T12:48:28.758Z,14.78
2019-05-07T12:49:28.742Z,14.81
2019-05-07T12:50:28.729Z,14.94
2019-05-07T12:51:34.574Z,15.03
2019-05-07T12:52:28.705Z,15.14
2019-05-07T12:53:28.697Z,15.19
2019-05-07T12:54:28.683Z,15.25
2019-05-07T12:55:28.670Z,15.36
2019-05-07T12:56:28.663Z,15.49
2019-05-07T12:57:28.655Z,15.54
2019-05-07T12:58:28.640Z,15.51
2019-05-07T12:59:28.624Z,15.54
2019-05-07T13:00:28.614Z,15.60
2019-05-07T13:01:28.604Z,15.62
2019-05-07T13:02:38.067Z,15.59
2019-05-07T13:03:28.577Z,15.75
2019-05-07T13:04:28.570Z,15.75
2019-05-07T13:05:28.559Z,15.71
2019-05-07T13:06:28.552Z,15.92
2019-05-07T13:07:28.541Z,15.96
2019-05-07T13:08:28.528Z,16.01
2019-05-07T13:09:28.517Z,16.08
2019-05-07T13:10:28.506Z,16.04
2019-05-07T13:11:28.491Z,16.05